Terminal Aerodrome Forecast
Issued by NWS Jackson, KY

Home | Current Version | Previous Version | Text Only | Print | Product List | Glossary On
Versions: 1 2 3 4 5 6 7 8 9 10 11 12 13 14 15 16 17 18
927
FTUS43 KJKL 251741
TAFJKL
TAF
KJKL 251741Z 2518/2618 27006KT P6SM BKN040 OVC120
     FM260000 VRB03KT P6SM SCT100
     FM260700 VRB03KT P6SM BKN090
     FM261400 VRB05KT P6SM SCT070=

USA.gov is the U.S. government's official web portal to all federal, state and local government web resources and services.